Harrison, Nebraska
Current Conditions -  °F | °C
As of 5:53 PM on Wednesday 17 Dec 2014 (Local Time) from KCDR Reporting Station
NA  
Wind Chill: 17°   Ceiling: NA
Heat Index: 17°   Visibility: 8mi
Dew Point: 14°   Wind: 3mph
Humidity: 88%   Direction: 270°W
Pressure: 30"   Gusts: NA
Location:  42.69°N, 103.88°W
Report Text: KCDR 180053Z AUTO 27003KT 8SM M08/M10 A3000 RMK AO2 SLP229 T10831100 $
Loading
Personal Weather Stations






























Interactive Weather Map New forecast layout! Learn more

10-Day Weather Forecast

Advertisements
Track Severe Weather on mobile